sensor_id;sensor_type;location;lat;lon;timestamp;P1;durP1;ratioP1;P2;durP2;ratioP2
19278;SDS011;9773;47.062;15.446;2023-11-21T00:00:14;21.60;;;13.60;;
19278;SDS011;9773;47.062;15.446;2023-11-21T00:02:41;20.40;;;13.90;;
19278;SDS011;9773;47.062;15.446;2023-11-21T00:05:10;19.80;;;12.73;;
19278;SDS011;9773;47.062;15.446;2023-11-21T00:07:39;21.57;;;12.97;;
19278;SDS011;9773;47.062;15.446;2023-11-21T00:10:05;19.17;;;13.50;;
19278;SDS011;9773;47.062;15.446;2023-11-21T00:12:33;18.40;;;13.37;;
19278;SDS011;9773;47.062;15.446;2023-11-21T00:14:59;20.10;;;12.20;;
19278;SDS011;9773;47.062;15.446;2023-11-21T00:17:27;18.90;;;13.20;;
19278;SDS011;9773;47.062;15.446;2023-11-21T00:19:52;18.20;;;11.80;;
19278;SDS011;9773;47.062;15.446;2023-11-21T00:22:18;16.53;;;12.27;;
19278;SDS011;9773;47.062;15.446;2023-11-21T00:24:44;16.90;;;12.47;;
19278;SDS011;9773;47.062;15.446;2023-11-21T00:27:11;19.03;;;12.10;;
19278;SDS011;9773;47.062;15.446;2023-11-21T00:29:36;19.87;;;12.73;;
19278;SDS011;9773;47.062;15.446;2023-11-21T00:32:03;14.20;;;11.33;;
19278;SDS011;9773;47.062;15.446;2023-11-21T00:34:30;16.80;;;11.40;;
19278;SDS011;9773;47.062;15.446;2023-11-21T00:36:56;22.73;;;12.33;;
19278;SDS011;9773;47.062;15.446;2023-11-21T00:39:22;18.03;;;12.20;;
19278;SDS011;9773;47.062;15.446;2023-11-21T00:41:48;20.10;;;12.27;;
19278;SDS011;9773;47.062;15.446;2023-11-21T00:44:14;17.17;;;11.80;;
19278;SDS011;9773;47.062;15.446;2023-11-21T00:46:41;18.13;;;11.67;;
19278;SDS011;9773;47.062;15.446;2023-11-21T00:49:07;19.03;;;11.97;;
19278;SDS011;9773;47.062;15.446;2023-11-21T00:51:33;18.53;;;12.43;;
19278;SDS011;9773;47.062;15.446;2023-11-21T00:53:58;17.90;;;12.37;;
19278;SDS011;9773;47.062;15.446;2023-11-21T00:56:24;18.70;;;12.50;;
19278;SDS011;9773;47.062;15.446;2023-11-21T00:58:50;19.23;;;12.70;;
19278;SDS011;9773;47.062;15.446;2023-11-21T01:01:18;15.27;;;12.57;;
19278;SDS011;9773;47.062;15.446;2023-11-21T01:03:45;17.60;;;11.53;;
19278;SDS011;9773;47.062;15.446;2023-11-21T01:06:11;16.00;;;10.70;;
19278;SDS011;9773;47.062;15.446;2023-11-21T01:08:37;16.60;;;10.87;;
19278;SDS011;9773;47.062;15.446;2023-11-21T01:11:03;14.03;;;10.80;;
19278;SDS011;9773;47.062;15.446;2023-11-21T01:13:29;15.00;;;10.93;;
19278;SDS011;9773;47.062;15.446;2023-11-21T01:15:56;15.30;;;11.03;;
19278;SDS011;9773;47.062;15.446;2023-11-21T01:18:22;17.90;;;10.80;;
19278;SDS011;9773;47.062;15.446;2023-11-21T01:20:50;15.00;;;10.83;;
19278;SDS011;9773;47.062;15.446;2023-11-21T01:23:18;14.33;;;11.00;;
19278;SDS011;9773;47.062;15.446;2023-11-21T01:25:44;14.23;;;10.20;;
19278;SDS011;9773;47.062;15.446;2023-11-21T01:28:10;14.33;;;10.77;;
19278;SDS011;9773;47.062;15.446;2023-11-21T01:30:36;17.23;;;10.90;;
19278;SDS011;9773;47.062;15.446;2023-11-21T01:33:02;14.53;;;10.70;;
19278;SDS011;9773;47.062;15.446;2023-11-21T01:35:28;16.73;;;11.37;;
19278;SDS011;9773;47.062;15.446;2023-11-21T01:37:54;15.77;;;10.73;;
19278;SDS011;9773;47.062;15.446;2023-11-21T01:40:19;15.57;;;10.47;;
19278;SDS011;9773;47.062;15.446;2023-11-21T01:42:46;15.10;;;10.77;;
19278;SDS011;9773;47.062;15.446;2023-11-21T01:45:13;12.83;;;9.90;;
19278;SDS011;9773;47.062;15.446;2023-11-21T01:47:39;12.47;;;9.30;;
19278;SDS011;9773;47.062;15.446;2023-11-21T01:50:10;14.77;;;9.63;;
19278;SDS011;9773;47.062;15.446;2023-11-21T01:52:41;14.30;;;9.70;;
19278;SDS011;9773;47.062;15.446;2023-11-21T01:55:12;14.70;;;9.47;;
19278;SDS011;9773;47.062;15.446;2023-11-21T01:57:43;14.30;;;9.80;;
19278;SDS011;9773;47.062;15.446;2023-11-21T02:00:09;11.77;;;10.13;;
19278;SDS011;9773;47.062;15.446;2023-11-21T02:02:43;13.50;;;9.63;;
19278;SDS011;9773;47.062;15.446;2023-11-21T02:05:10;12.43;;;9.00;;
19278;SDS011;9773;47.062;15.446;2023-11-21T02:07:38;13.37;;;9.03;;
19278;SDS011;9773;47.062;15.446;2023-11-21T02:10:05;13.47;;;8.60;;
19278;SDS011;9773;47.062;15.446;2023-11-21T02:12:34;12.50;;;8.10;;
19278;SDS011;9773;47.062;15.446;2023-11-21T02:15:03;11.07;;;7.50;;
19278;SDS011;9773;47.062;15.446;2023-11-21T02:17:39;9.27;;;7.43;;
19278;SDS011;9773;47.062;15.446;2023-11-21T02:20:09;11.13;;;7.90;;
19278;SDS011;9773;47.062;15.446;2023-11-21T02:22:40;10.17;;;6.83;;
19278;SDS011;9773;47.062;15.446;2023-11-21T02:25:07;9.40;;;7.10;;
19278;SDS011;9773;47.062;15.446;2023-11-21T02:27:33;9.60;;;6.60;;
19278;SDS011;9773;47.062;15.446;2023-11-21T02:29:59;13.63;;;7.30;;
19278;SDS011;9773;47.062;15.446;2023-11-21T02:32:26;8.57;;;6.70;;
19278;SDS011;9773;47.062;15.446;2023-11-21T02:34:51;7.50;;;6.70;;
19278;SDS011;9773;47.062;15.446;2023-11-21T02:37:21;8.40;;;6.20;;
19278;SDS011;9773;47.062;15.446;2023-11-21T02:39:46;11.30;;;6.20;;
19278;SDS011;9773;47.062;15.446;2023-11-21T02:42:13;8.20;;;5.77;;
19278;SDS011;9773;47.062;15.446;2023-11-21T02:44:39;6.87;;;5.80;;
19278;SDS011;9773;47.062;15.446;2023-11-21T02:47:04;9.50;;;6.53;;
19278;SDS011;9773;47.062;15.446;2023-11-21T02:49:30;6.90;;;5.80;;
19278;SDS011;9773;47.062;15.446;2023-11-21T02:51:56;6.30;;;5.60;;
19278;SDS011;9773;47.062;15.446;2023-11-21T02:54:22;8.30;;;5.63;;
19278;SDS011;9773;47.062;15.446;2023-11-21T02:56:48;5.67;;;5.10;;
19278;SDS011;9773;47.062;15.446;2023-11-21T02:59:14;5.30;;;4.80;;
19278;SDS011;9773;47.062;15.446;2023-11-21T03:01:41;7.67;;;4.93;;
19278;SDS011;9773;47.062;15.446;2023-11-21T03:04:07;5.60;;;4.83;;
19278;SDS011;9773;47.062;15.446;2023-11-21T03:06:32;5.10;;;4.23;;
19278;SDS011;9773;47.062;15.446;2023-11-21T03:08:58;8.83;;;4.83;;
19278;SDS011;9773;47.062;15.446;2023-11-21T03:11:25;6.13;;;4.90;;
19278;SDS011;9773;47.062;15.446;2023-11-21T03:13:50;6.53;;;4.53;;
19278;SDS011;9773;47.062;15.446;2023-11-21T03:16:16;6.13;;;4.33;;
19278;SDS011;9773;47.062;15.446;2023-11-21T03:18:44;5.40;;;4.20;;
19278;SDS011;9773;47.062;15.446;2023-11-21T03:21:10;5.77;;;4.77;;
19278;SDS011;9773;47.062;15.446;2023-11-21T03:23:36;4.90;;;4.17;;
19278;SDS011;9773;47.062;15.446;2023-11-21T03:26:02;7.90;;;4.80;;
19278;SDS011;9773;47.062;15.446;2023-11-21T03:28:28;5.60;;;4.33;;
19278;SDS011;9773;47.062;15.446;2023-11-21T03:30:55;5.17;;;4.67;;
19278;SDS011;9773;47.062;15.446;2023-11-21T03:33:21;6.07;;;4.70;;
19278;SDS011;9773;47.062;15.446;2023-11-21T03:35:47;4.40;;;4.00;;
19278;SDS011;9773;47.062;15.446;2023-11-21T03:38:14;5.33;;;4.40;;
19278;SDS011;9773;47.062;15.446;2023-11-21T03:40:41;4.87;;;4.03;;
19278;SDS011;9773;47.062;15.446;2023-11-21T03:43:06;4.53;;;4.13;;
19278;SDS011;9773;47.062;15.446;2023-11-21T03:45:32;4.30;;;3.90;;
19278;SDS011;9773;47.062;15.446;2023-11-21T03:47:58;4.73;;;4.03;;
19278;SDS011;9773;47.062;15.446;2023-11-21T03:50:26;4.23;;;3.70;;
19278;SDS011;9773;47.062;15.446;2023-11-21T03:52:55;4.90;;;4.33;;
19278;SDS011;9773;47.062;15.446;2023-11-21T03:55:20;6.10;;;4.30;;
19278;SDS011;9773;47.062;15.446;2023-11-21T03:57:46;4.33;;;3.93;;
19278;SDS011;9773;47.062;15.446;2023-11-21T04:00:12;4.37;;;3.97;;
19278;SDS011;9773;47.062;15.446;2023-11-21T04:02:38;3.90;;;3.60;;
19278;SDS011;9773;47.062;15.446;2023-11-21T04:05:04;9.60;;;4.23;;
19278;SDS011;9773;47.062;15.446;2023-11-21T04:07:32;5.43;;;3.97;;
19278;SDS011;9773;47.062;15.446;2023-11-21T04:09:57;5.20;;;4.40;;
19278;SDS011;9773;47.062;15.446;2023-11-21T04:12:24;4.13;;;3.83;;
19278;SDS011;9773;47.062;15.446;2023-11-21T04:14:49;6.27;;;4.17;;
19278;SDS011;9773;47.062;15.446;2023-11-21T04:17:17;4.37;;;3.97;;
19278;SDS011;9773;47.062;15.446;2023-11-21T04:19:44;4.10;;;3.67;;
19278;SDS011;9773;47.062;15.446;2023-11-21T04:22:11;5.23;;;4.40;;
19278;SDS011;9773;47.062;15.446;2023-11-21T04:24:37;5.77;;;4.70;;
19278;SDS011;9773;47.062;15.446;2023-11-21T04:27:02;5.60;;;4.30;;
19278;SDS011;9773;47.062;15.446;2023-11-21T04:29:28;4.30;;;3.97;;
19278;SDS011;9773;47.062;15.446;2023-11-21T04:31:54;4.40;;;4.03;;
19278;SDS011;9773;47.062;15.446;2023-11-21T04:34:20;5.57;;;4.37;;
19278;SDS011;9773;47.062;15.446;2023-11-21T04:36:46;4.70;;;3.87;;
19278;SDS011;9773;47.062;15.446;2023-11-21T04:39:11;7.13;;;4.33;;
19278;SDS011;9773;47.062;15.446;2023-11-21T04:41:37;4.90;;;4.50;;
19278;SDS011;9773;47.062;15.446;2023-11-21T04:44:05;4.40;;;4.10;;
19278;SDS011;9773;47.062;15.446;2023-11-21T04:46:31;4.87;;;4.37;;
19278;SDS011;9773;47.062;15.446;2023-11-21T04:48:58;5.23;;;4.30;;
19278;SDS011;9773;47.062;15.446;2023-11-21T04:51:24;5.27;;;4.77;;
19278;SDS011;9773;47.062;15.446;2023-11-21T04:53:50;5.93;;;4.60;;
19278;SDS011;9773;47.062;15.446;2023-11-21T04:56:15;5.33;;;4.83;;
19278;SDS011;9773;47.062;15.446;2023-11-21T04:58:41;5.10;;;4.60;;
19278;SDS011;9773;47.062;15.446;2023-11-21T05:01:07;4.73;;;4.27;;
19278;SDS011;9773;47.062;15.446;2023-11-21T05:03:33;6.50;;;4.50;;
19278;SDS011;9773;47.062;15.446;2023-11-21T05:05:59;5.40;;;4.90;;
19278;SDS011;9773;47.062;15.446;2023-11-21T05:08:25;4.83;;;4.40;;
19278;SDS011;9773;47.062;15.446;2023-11-21T05:10:51;5.63;;;4.93;;
19278;SDS011;9773;47.062;15.446;2023-11-21T05:13:18;4.50;;;4.20;;
19278;SDS011;9773;47.062;15.446;2023-11-21T05:15:45;4.43;;;4.03;;
19278;SDS011;9773;47.062;15.446;2023-11-21T05:18:10;8.77;;;5.17;;
19278;SDS011;9773;47.062;15.446;2023-11-21T05:20:38;5.97;;;5.17;;
19278;SDS011;9773;47.062;15.446;2023-11-21T05:23:06;5.57;;;4.97;;
19278;SDS011;9773;47.062;15.446;2023-11-21T05:25:33;5.43;;;5.00;;
19278;SDS011;9773;47.062;15.446;2023-11-21T05:27:59;5.50;;;4.97;;
19278;SDS011;9773;47.062;15.446;2023-11-21T05:30:26;8.23;;;5.67;;
19278;SDS011;9773;47.062;15.446;2023-11-21T05:32:53;6.37;;;5.73;;
19278;SDS011;9773;47.062;15.446;2023-11-21T05:35:18;8.60;;;6.30;;
19278;SDS011;9773;47.062;15.446;2023-11-21T05:37:44;8.97;;;6.93;;
19278;SDS011;9773;47.062;15.446;2023-11-21T05:40:11;12.50;;;7.80;;
19278;SDS011;9773;47.062;15.446;2023-11-21T05:42:38;9.00;;;7.60;;
19278;SDS011;9773;47.062;15.446;2023-11-21T05:45:05;8.73;;;7.50;;
19278;SDS011;9773;47.062;15.446;2023-11-21T05:47:39;9.20;;;8.30;;
19278;SDS011;9773;47.062;15.446;2023-11-21T05:50:06;10.03;;;8.13;;
19278;SDS011;9773;47.062;15.446;2023-11-21T05:52:37;11.67;;;9.00;;
19278;SDS011;9773;47.062;15.446;2023-11-21T05:55:04;10.67;;;8.60;;
19278;SDS011;9773;47.062;15.446;2023-11-21T05:57:34;13.37;;;9.23;;
19278;SDS011;9773;47.062;15.446;2023-11-21T06:00:04;13.60;;;9.80;;
19278;SDS011;9773;47.062;15.446;2023-11-21T06:02:36;10.50;;;8.70;;
19278;SDS011;9773;47.062;15.446;2023-11-21T06:05:08;12.23;;;9.37;;
19278;SDS011;9773;47.062;15.446;2023-11-21T06:07:34;11.50;;;9.57;;
19278;SDS011;9773;47.062;15.446;2023-11-21T06:10:03;13.83;;;9.10;;
19278;SDS011;9773;47.062;15.446;2023-11-21T06:12:36;10.60;;;8.90;;
19278;SDS011;9773;47.062;15.446;2023-11-21T06:15:03;12.33;;;9.07;;
19278;SDS011;9773;47.062;15.446;2023-11-21T06:17:30;11.97;;;8.83;;
19278;SDS011;9773;47.062;15.446;2023-11-21T06:19:56;10.00;;;8.53;;
19278;SDS011;9773;47.062;15.446;2023-11-21T06:22:23;12.53;;;9.17;;
19278;SDS011;9773;47.062;15.446;2023-11-21T06:24:49;12.13;;;8.70;;
19278;SDS011;9773;47.062;15.446;2023-11-21T06:27:15;12.53;;;9.03;;
19278;SDS011;9773;47.062;15.446;2023-11-21T06:29:41;10.43;;;8.43;;
19278;SDS011;9773;47.062;15.446;2023-11-21T06:32:07;12.57;;;9.53;;
19278;SDS011;9773;47.062;15.446;2023-11-21T06:34:33;11.53;;;8.73;;
19278;SDS011;9773;47.062;15.446;2023-11-21T06:36:59;13.23;;;9.50;;
19278;SDS011;9773;47.062;15.446;2023-11-21T06:39:24;10.50;;;8.73;;
19278;SDS011;9773;47.062;15.446;2023-11-21T06:41:50;13.03;;;9.50;;
19278;SDS011;9773;47.062;15.446;2023-11-21T06:44:16;13.13;;;9.30;;
19278;SDS011;9773;47.062;15.446;2023-11-21T06:46:41;12.33;;;8.80;;
19278;SDS011;9773;47.062;15.446;2023-11-21T06:49:08;14.03;;;8.77;;
19278;SDS011;9773;47.062;15.446;2023-11-21T06:51:33;11.07;;;9.10;;
19278;SDS011;9773;47.062;15.446;2023-11-21T06:53:59;11.57;;;9.10;;
19278;SDS011;9773;47.062;15.446;2023-11-21T06:56:25;12.13;;;10.03;;
19278;SDS011;9773;47.062;15.446;2023-11-21T06:58:51;10.67;;;9.10;;
19278;SDS011;9773;47.062;15.446;2023-11-21T07:01:19;12.83;;;8.80;;
19278;SDS011;9773;47.062;15.446;2023-11-21T07:03:45;10.87;;;7.47;;
19278;SDS011;9773;47.062;15.446;2023-11-21T07:06:11;8.97;;;6.47;;
19278;SDS011;9773;47.062;15.446;2023-11-21T07:08:36;11.53;;;9.27;;
19278;SDS011;9773;47.062;15.446;2023-11-21T07:11:05;11.77;;;9.43;;
19278;SDS011;9773;47.062;15.446;2023-11-21T07:13:30;10.27;;;9.13;;
19278;SDS011;9773;47.062;15.446;2023-11-21T07:15:57;11.87;;;9.63;;
19278;SDS011;9773;47.062;15.446;2023-11-21T07:18:24;11.37;;;9.37;;
19278;SDS011;9773;47.062;15.446;2023-11-21T07:20:50;12.43;;;8.93;;
19278;SDS011;9773;47.062;15.446;2023-11-21T07:23:16;11.00;;;8.47;;
19278;SDS011;9773;47.062;15.446;2023-11-21T07:25:42;10.30;;;7.70;;
19278;SDS011;9773;47.062;15.446;2023-11-21T07:28:08;10.27;;;6.60;;
19278;SDS011;9773;47.062;15.446;2023-11-21T07:30:34;7.83;;;6.73;;
19278;SDS011;9773;47.062;15.446;2023-11-21T07:33:00;10.43;;;7.10;;
19278;SDS011;9773;47.062;15.446;2023-11-21T07:35:26;7.50;;;6.07;;
19278;SDS011;9773;47.062;15.446;2023-11-21T07:37:51;7.43;;;5.43;;
19278;SDS011;9773;47.062;15.446;2023-11-21T07:40:17;7.13;;;5.40;;
19278;SDS011;9773;47.062;15.446;2023-11-21T07:42:43;5.43;;;4.93;;
19278;SDS011;9773;47.062;15.446;2023-11-21T07:45:09;6.53;;;4.80;;
19278;SDS011;9773;47.062;15.446;2023-11-21T07:47:35;5.27;;;4.70;;
19278;SDS011;9773;47.062;15.446;2023-11-21T07:50:02;5.10;;;4.60;;
19278;SDS011;9773;47.062;15.446;2023-11-21T07:52:28;6.17;;;5.00;;
19278;SDS011;9773;47.062;15.446;2023-11-21T07:54:54;5.70;;;4.80;;
19278;SDS011;9773;47.062;15.446;2023-11-21T07:57:19;5.77;;;4.50;;
19278;SDS011;9773;47.062;15.446;2023-11-21T07:59:45;5.70;;;4.87;;
19278;SDS011;9773;47.062;15.446;2023-11-21T08:02:11;11.90;;;5.00;;
19278;SDS011;9773;47.062;15.446;2023-11-21T08:04:37;5.07;;;4.57;;
19278;SDS011;9773;47.062;15.446;2023-11-21T08:07:02;5.73;;;4.70;;
19278;SDS011;9773;47.062;15.446;2023-11-21T08:09:28;8.13;;;5.20;;
19278;SDS011;9773;47.062;15.446;2023-11-21T08:11:55;9.80;;;5.57;;
19278;SDS011;9773;47.062;15.446;2023-11-21T08:14:21;8.10;;;5.30;;
19278;SDS011;9773;47.062;15.446;2023-11-21T08:16:50;8.03;;;5.37;;
19278;SDS011;9773;47.062;15.446;2023-11-21T08:19:16;8.23;;;5.00;;
19278;SDS011;9773;47.062;15.446;2023-11-21T08:21:43;5.83;;;4.93;;
19278;SDS011;9773;47.062;15.446;2023-11-21T08:24:09;5.40;;;4.90;;
19278;SDS011;9773;47.062;15.446;2023-11-21T08:26:36;7.07;;;4.80;;
19278;SDS011;9773;47.062;15.446;2023-11-21T08:29:02;5.77;;;4.80;;
19278;SDS011;9773;47.062;15.446;2023-11-21T08:31:28;7.40;;;4.90;;
19278;SDS011;9773;47.062;15.446;2023-11-21T08:33:54;6.03;;;5.33;;
19278;SDS011;9773;47.062;15.446;2023-11-21T08:36:21;6.53;;;5.23;;
19278;SDS011;9773;47.062;15.446;2023-11-21T08:38:49;6.90;;;5.17;;
19278;SDS011;9773;47.062;15.446;2023-11-21T08:41:17;6.40;;;5.57;;
19278;SDS011;9773;47.062;15.446;2023-11-21T08:43:47;6.20;;;5.53;;
19278;SDS011;9773;47.062;15.446;2023-11-21T08:46:14;6.57;;;5.63;;
19278;SDS011;9773;47.062;15.446;2023-11-21T08:48:40;7.77;;;5.50;;
19278;SDS011;9773;47.062;15.446;2023-11-21T08:51:06;6.20;;;5.60;;
19278;SDS011;9773;47.062;15.446;2023-11-21T08:53:34;10.13;;;5.47;;
19278;SDS011;9773;47.062;15.446;2023-11-21T08:56:00;10.47;;;7.90;;
19278;SDS011;9773;47.062;15.446;2023-11-21T08:58:27;6.50;;;5.80;;
19278;SDS011;9773;47.062;15.446;2023-11-21T09:00:52;6.17;;;5.60;;
19278;SDS011;9773;47.062;15.446;2023-11-21T09:03:18;6.93;;;5.50;;
19278;SDS011;9773;47.062;15.446;2023-11-21T09:05:44;7.23;;;5.37;;
19278;SDS011;9773;47.062;15.446;2023-11-21T09:08:10;6.30;;;5.67;;
19278;SDS011;9773;47.062;15.446;2023-11-21T09:10:35;5.77;;;5.10;;
19278;SDS011;9773;47.062;15.446;2023-11-21T09:13:02;5.37;;;4.90;;
19278;SDS011;9773;47.062;15.446;2023-11-21T09:15:28;5.83;;;5.23;;
19278;SDS011;9773;47.062;15.446;2023-11-21T09:17:54;4.87;;;4.43;;
19278;SDS011;9773;47.062;15.446;2023-11-21T09:20:19;5.53;;;5.00;;
19278;SDS011;9773;47.062;15.446;2023-11-21T09:22:48;4.87;;;4.40;;
19278;SDS011;9773;47.062;15.446;2023-11-21T09:25:14;6.63;;;5.10;;
19278;SDS011;9773;47.062;15.446;2023-11-21T09:27:40;4.90;;;4.50;;
19278;SDS011;9773;47.062;15.446;2023-11-21T09:30:06;6.80;;;4.90;;
19278;SDS011;9773;47.062;15.446;2023-11-21T09:32:35;8.20;;;5.40;;
19278;SDS011;9773;47.062;15.446;2023-11-21T09:35:03;6.30;;;5.30;;
19278;SDS011;9773;47.062;15.446;2023-11-21T09:37:30;7.07;;;5.20;;
19278;SDS011;9773;47.062;15.446;2023-11-21T09:39:56;5.97;;;4.83;;
19278;SDS011;9773;47.062;15.446;2023-11-21T09:42:26;6.37;;;5.07;;
19278;SDS011;9773;47.062;15.446;2023-11-21T09:47:40;6.07;;;5.07;;
19278;SDS011;9773;47.062;15.446;2023-11-21T09:50:08;8.10;;;5.53;;
19278;SDS011;9773;47.062;15.446;2023-11-21T09:52:48;6.43;;;5.00;;
19278;SDS011;9773;47.062;15.446;2023-11-21T09:55:26;7.57;;;6.23;;
19278;SDS011;9773;47.062;15.446;2023-11-21T09:57:56;7.30;;;5.47;;
19278;SDS011;9773;47.062;15.446;2023-11-21T10:00:23;8.07;;;5.47;;
19278;SDS011;9773;47.062;15.446;2023-11-21T10:02:49;5.57;;;5.00;;
19278;SDS011;9773;47.062;15.446;2023-11-21T10:05:16;5.20;;;4.80;;
19278;SDS011;9773;47.062;15.446;2023-11-21T10:07:45;5.63;;;4.83;;
19278;SDS011;9773;47.062;15.446;2023-11-21T10:10:12;5.00;;;4.60;;
19278;SDS011;9773;47.062;15.446;2023-11-21T10:12:40;5.50;;;4.93;;
19278;SDS011;9773;47.062;15.446;2023-11-21T10:15:07;6.43;;;5.30;;
19278;SDS011;9773;47.062;15.446;2023-11-21T10:17:36;5.03;;;4.60;;
19278;SDS011;9773;47.062;15.446;2023-11-21T10:20:08;6.50;;;4.63;;
19278;SDS011;9773;47.062;15.446;2023-11-21T10:22:39;5.30;;;4.40;;
19278;SDS011;9773;47.062;15.446;2023-11-21T10:25:09;5.90;;;4.57;;
19278;SDS011;9773;47.062;15.446;2023-11-21T10:27:35;5.20;;;4.37;;
19278;SDS011;9773;47.062;15.446;2023-11-21T10:30:03;5.93;;;4.80;;
19278;SDS011;9773;47.062;15.446;2023-11-21T10:32:33;5.33;;;4.60;;
19278;SDS011;9773;47.062;15.446;2023-11-21T10:34:59;5.73;;;4.90;;
19278;SDS011;9773;47.062;15.446;2023-11-21T10:37:27;5.20;;;4.70;;
19278;SDS011;9773;47.062;15.446;2023-11-21T10:40:01;5.57;;;4.77;;
19278;SDS011;9773;47.062;15.446;2023-11-21T10:42:27;7.67;;;5.50;;
19278;SDS011;9773;47.062;15.446;2023-11-21T10:44:53;7.90;;;5.20;;
19278;SDS011;9773;47.062;15.446;2023-11-21T10:47:19;6.33;;;5.63;;
19278;SDS011;9773;47.062;15.446;2023-11-21T10:49:51;7.40;;;5.47;;
19278;SDS011;9773;47.062;15.446;2023-11-21T10:52:18;5.93;;;5.33;;
19278;SDS011;9773;47.062;15.446;2023-11-21T10:54:45;6.53;;;5.03;;
19278;SDS011;9773;47.062;15.446;2023-11-21T10:57:12;5.37;;;4.87;;
19278;SDS011;9773;47.062;15.446;2023-11-21T10:59:42;7.17;;;5.30;;
19278;SDS011;9773;47.062;15.446;2023-11-21T11:02:21;6.03;;;5.53;;
19278;SDS011;9773;47.062;15.446;2023-11-21T11:04:57;6.40;;;5.77;;
19278;SDS011;9773;47.062;15.446;2023-11-21T11:07:26;5.40;;;4.90;;
19278;SDS011;9773;47.062;15.446;2023-11-21T11:09:56;6.97;;;5.57;;
19278;SDS011;9773;47.062;15.446;2023-11-21T11:12:24;5.70;;;5.20;;
19278;SDS011;9773;47.062;15.446;2023-11-21T11:14:49;6.73;;;5.03;;
19278;SDS011;9773;47.062;15.446;2023-11-21T11:17:17;7.93;;;5.47;;
19278;SDS011;9773;47.062;15.446;2023-11-21T11:19:45;6.63;;;4.90;;
19278;SDS011;9773;47.062;15.446;2023-11-21T11:22:26;6.40;;;5.10;;
19278;SDS011;9773;47.062;15.446;2023-11-21T11:28:11;5.53;;;5.03;;
19278;SDS011;9773;47.062;15.446;2023-11-21T11:33:53;7.37;;;4.57;;
19278;SDS011;9773;47.062;15.446;2023-11-21T11:36:29;5.93;;;4.80;;
19278;SDS011;9773;47.062;15.446;2023-11-21T11:39:01;5.67;;;5.10;;
19278;SDS011;9773;47.062;15.446;2023-11-21T11:41:29;6.10;;;4.80;;
19278;SDS011;9773;47.062;15.446;2023-11-21T11:44:02;5.00;;;4.50;;
19278;SDS011;9773;47.062;15.446;2023-11-21T11:46:43;6.10;;;5.00;;
19278;SDS011;9773;47.062;15.446;2023-11-21T11:49:28;5.33;;;4.83;;
19278;SDS011;9773;47.062;15.446;2023-11-21T11:54:59;7.27;;;5.10;;
19278;SDS011;9773;47.062;15.446;2023-11-21T11:57:25;5.93;;;5.33;;
19278;SDS011;9773;47.062;15.446;2023-11-21T12:00:10;6.70;;;5.33;;
19278;SDS011;9773;47.062;15.446;2023-11-21T12:03:00;7.53;;;5.20;;
19278;SDS011;9773;47.062;15.446;2023-11-21T12:05:30;7.30;;;5.30;;
19278;SDS011;9773;47.062;15.446;2023-11-21T12:08:10;8.13;;;4.90;;
19278;SDS011;9773;47.062;15.446;2023-11-21T12:10:37;5.20;;;4.70;;
19278;SDS011;9773;47.062;15.446;2023-11-21T12:15:38;6.70;;;4.93;;
19278;SDS011;9773;47.062;15.446;2023-11-21T12:18:05;8.40;;;4.63;;
19278;SDS011;9773;47.062;15.446;2023-11-21T12:20:31;9.33;;;5.57;;
19278;SDS011;9773;47.062;15.446;2023-11-21T12:23:00;6.67;;;4.87;;
19278;SDS011;9773;47.062;15.446;2023-11-21T12:25:29;7.40;;;5.80;;
19278;SDS011;9773;47.062;15.446;2023-11-21T12:27:59;6.23;;;5.17;;
19278;SDS011;9773;47.062;15.446;2023-11-21T12:30:26;6.63;;;6.00;;
19278;SDS011;9773;47.062;15.446;2023-11-21T12:32:55;6.87;;;5.60;;
19278;SDS011;9773;47.062;15.446;2023-11-21T12:35:23;6.67;;;5.73;;
19278;SDS011;9773;47.062;15.446;2023-11-21T12:37:51;7.40;;;5.43;;
19278;SDS011;9773;47.062;15.446;2023-11-21T12:40:18;7.63;;;5.23;;
19278;SDS011;9773;47.062;15.446;2023-11-21T12:42:45;6.67;;;5.90;;
19278;SDS011;9773;47.062;15.446;2023-11-21T12:47:55;5.50;;;5.00;;
19278;SDS011;9773;47.062;15.446;2023-11-21T12:50:32;5.50;;;4.97;;
19278;SDS011;9773;47.062;15.446;2023-11-21T12:53:00;8.03;;;6.30;;
19278;SDS011;9773;47.062;15.446;2023-11-21T12:55:29;9.03;;;5.40;;
19278;SDS011;9773;47.062;15.446;2023-11-21T12:57:56;9.03;;;6.03;;
19278;SDS011;9773;47.062;15.446;2023-11-21T13:00:31;7.13;;;5.80;;
19278;SDS011;9773;47.062;15.446;2023-11-21T13:03:02;9.00;;;6.63;;
19278;SDS011;9773;47.062;15.446;2023-11-21T13:05:30;6.13;;;5.63;;
19278;SDS011;9773;47.062;15.446;2023-11-21T13:07:59;8.00;;;6.03;;
19278;SDS011;9773;47.062;15.446;2023-11-21T13:10:33;7.00;;;5.70;;
19278;SDS011;9773;47.062;15.446;2023-11-21T13:13:02;12.43;;;6.83;;
19278;SDS011;9773;47.062;15.446;2023-11-21T13:15:50;8.30;;;7.00;;
19278;SDS011;9773;47.062;15.446;2023-11-21T13:18:25;7.50;;;6.73;;
19278;SDS011;9773;47.062;15.446;2023-11-21T13:20:57;7.83;;;6.97;;
19278;SDS011;9773;47.062;15.446;2023-11-21T13:23:24;9.30;;;7.20;;
19278;SDS011;9773;47.062;15.446;2023-11-21T13:25:51;8.17;;;7.23;;
19278;SDS011;9773;47.062;15.446;2023-11-21T13:28:17;10.00;;;6.87;;
19278;SDS011;9773;47.062;15.446;2023-11-21T13:30:46;7.17;;;6.20;;
19278;SDS011;9773;47.062;15.446;2023-11-21T13:33:13;9.43;;;6.90;;
19278;SDS011;9773;47.062;15.446;2023-11-21T13:35:43;8.07;;;6.67;;
19278;SDS011;9773;47.062;15.446;2023-11-21T13:38:14;6.27;;;5.53;;
19278;SDS011;9773;47.062;15.446;2023-11-21T13:40:42;6.93;;;5.43;;
19278;SDS011;9773;47.062;15.446;2023-11-21T13:43:17;10.80;;;6.50;;
19278;SDS011;9773;47.062;15.446;2023-11-21T13:45:45;7.07;;;6.37;;
19278;SDS011;9773;47.062;15.446;2023-11-21T13:48:12;8.23;;;6.97;;
19278;SDS011;9773;47.062;15.446;2023-11-21T13:50:50;11.07;;;7.07;;
19278;SDS011;9773;47.062;15.446;2023-11-21T13:53:35;8.83;;;7.20;;
19278;SDS011;9773;47.062;15.446;2023-11-21T13:56:02;8.63;;;6.87;;
19278;SDS011;9773;47.062;15.446;2023-11-21T13:58:29;6.90;;;6.20;;
19278;SDS011;9773;47.062;15.446;2023-11-21T14:01:09;12.43;;;6.77;;
19278;SDS011;9773;47.062;15.446;2023-11-21T14:03:56;9.30;;;6.37;;
19278;SDS011;9773;47.062;15.446;2023-11-21T14:06:40;6.63;;;6.03;;
19278;SDS011;9773;47.062;15.446;2023-11-21T14:09:19;8.77;;;7.30;;
19278;SDS011;9773;47.062;15.446;2023-11-21T14:11:58;12.20;;;8.00;;
19278;SDS011;9773;47.062;15.446;2023-11-21T14:14:25;9.10;;;7.47;;
19278;SDS011;9773;47.062;15.446;2023-11-21T14:16:55;9.77;;;6.80;;
19278;SDS011;9773;47.062;15.446;2023-11-21T14:19:22;9.73;;;7.30;;
19278;SDS011;9773;47.062;15.446;2023-11-21T14:21:52;8.13;;;6.83;;
19278;SDS011;9773;47.062;15.446;2023-11-21T14:24:18;8.57;;;7.30;;
19278;SDS011;9773;47.062;15.446;2023-11-21T14:26:46;13.20;;;7.03;;
19278;SDS011;9773;47.062;15.446;2023-11-21T14:29:13;9.40;;;7.30;;
19278;SDS011;9773;47.062;15.446;2023-11-21T14:31:42;9.43;;;6.67;;
19278;SDS011;9773;47.062;15.446;2023-11-21T14:34:10;8.77;;;6.83;;
19278;SDS011;9773;47.062;15.446;2023-11-21T14:36:38;8.87;;;7.23;;
19278;SDS011;9773;47.062;15.446;2023-11-21T14:39:05;10.40;;;7.67;;
19278;SDS011;9773;47.062;15.446;2023-11-21T14:41:34;9.07;;;7.00;;
19278;SDS011;9773;47.062;15.446;2023-11-21T14:44:02;8.20;;;6.20;;
19278;SDS011;9773;47.062;15.446;2023-11-21T14:46:29;8.23;;;6.80;;
19278;SDS011;9773;47.062;15.446;2023-11-21T14:48:55;8.87;;;6.30;;
19278;SDS011;9773;47.062;15.446;2023-11-21T14:51:27;7.77;;;6.33;;
19278;SDS011;9773;47.062;15.446;2023-11-21T14:53:57;8.53;;;6.70;;
19278;SDS011;9773;47.062;15.446;2023-11-21T14:56:46;7.90;;;7.00;;
19278;SDS011;9773;47.062;15.446;2023-11-21T14:59:12;11.37;;;7.07;;
19278;SDS011;9773;47.062;15.446;2023-11-21T15:01:41;8.30;;;6.70;;